ADDS TAF Data INFO
IDs: Format: Raw Decoded Include METARs

Data at: 1323 UTC 19 Jan 2018

KROW 191251Z 36004KT 10SM CLR M06/M13 A3002 RMK AO2 SLP170 T10611128

KROW 191131Z 1912/2012 VRB04KT P6SM SCT250
  FM191900 18010KT P6SM SCT250
  FM200100 24006KT P6SM FEW250